CYRJCYQB

Guest
Details From CYRJ - ROBERVAL
To CYQB - Quebec Jean Lesage Intl
Flight Number -
Tags generated
Created
Modified
Stats Distance 113 nm / 210 km
Max Altitude 1,400 ft / 427 m
Waypoints 3
Social Downloads 0
Likes 0
Share VATSIM

Download

Looking for another format? Having issues loading an existing format? Contact us
Advertisement - Login to hide

Notes

Basic altitude profile: - Ascent Rate: 2500ft/min - Ascent Speed: 250kts - Cruise Altitude: 35000ft - Cruise Speed: 420kts - Descent Rate: 1500ft/min - Descent Speed: 250kts Options: - Use NATs: yes - Use PACOTS: yes - Use low airways: yes - Use high airways: yes

Route

CYRJ BV CYQB

ID Type Via Altitude Latitude Longitude Leg Dist Tot Dist Heading (true) Name
O CYRJ APT - 0 ft / 0 m 48.52000˚ -72.26556˚ - 0 nm - ROBERVAL
BV NDB - 1,400 ft / 427 m 46.87114˚ -71.28142˚ 106 nm 106 nm 158° / 158° CHAMPLAIN NDB
O CYQB APT - 0 ft / 0 m 46.78946˚ -71.39276˚ 6 nm 113 nm 223° / 223° Quebec Jean Lesage Intl

Altitude Profile

Advertisement - Login to hide

CYRJ

Details ICAO CYRJ (YRJ)
Name ROBERVAL
Region Canada
Timezone America/Montreal (UTC-4.0)
Stats Elevation 586 ft / 179 m (AMSL)
Location 48.520001° -72.265556°
Runways 1
Magnetic Variation 16.038° W

METAR

CYRJ 231500Z 36008G15KT 330V040 40SM FEW040 10/M01 A2997 RMK SC1 SLP155

Decode

TAF

TAF CYRJ 231338Z 2314/2402 32012KT P6SM FEW030 FM232100 32012KT P6SM SCT030 BKN110 RMK NXT FCST BY 232000Z

Decode

Departure Runways

ID Width Length Bearing (true) Bearing (mag) Surface Threshold Offset Overrun Length
16 150 ft / 46 m 5,096 ft / 1,553 m 142.69° 158.73° Asphalt 0 ft / 0 m 0 ft / 0 m
34 150 ft / 46 m 5,096 ft / 1,553 m 322.70° 338.74° Asphalt 0 ft / 0 m 0 ft / 0 m

CYQB

Details ICAO CYQB (YQB)
Name Quebec Jean Lesage Intl
Region Canada
Timezone America/Montreal (UTC-4.0)
Stats Elevation 244 ft / 74 m (AMSL)
Location 46.789458° -71.392764°
Runways 2
Magnetic Variation 15.795° W

METAR

CYQB 231500Z 06008KT 15SM OVC006 09/08 A2992 RMK SF8 VIS LWR N SLP135

Decode

TAF

TAF TAF AMD CYQB 231509Z 2315/2412 06008KT P6SM OVC006 BECMG 2315/2317 SCT006 FM231700 08012G22KT P6SM BKN025 TEMPO 2317/2318 BKN020 FM231800 08012G22KT P6SM FEW040 BECMG 2322/2324 07010KT FM240200 VRB03KT P6SM SCT150 RMK NXT FCST BY 231800Z

Decode

Destination Runways

ID Width Length Bearing (true) Bearing (mag) Surface Threshold Offset Overrun Length
06 150 ft / 46 m 9,020 ft / 2,749 m 44.00° 59.80° Asphalt 0 ft / 0 m 0 ft / 0 m
12 150 ft / 46 m 5,678 ft / 1,731 m 97.58° 113.38° Asphalt 0 ft / 0 m 0 ft / 0 m
24 150 ft / 46 m 9,020 ft / 2,749 m 224.02° 239.82° Asphalt 0 ft / 0 m 0 ft / 0 m
30 150 ft / 46 m 5,678 ft / 1,731 m 277.60° 293.40° Asphalt 0 ft / 0 m 0 ft / 0 m

Approach Navaids

Runway Type Ident Frequency Range Bearing (true) Bearing (mag) Slope Elevation
06 Localiser IQB 109.50 MHz 18 nm / 33 km 44.33° 60.13° - 197 ft / 60 m (AMSL)
06 Glidescope IQB 109.50 MHz 18 nm / 33 km 42.00° 57.80° 3.00° 233 ft / 71 m (AMSL)